Terminal Aerodrome Forecast
Issued by NWS Newport/Morehead City, NC

Home | Current Version | Previous Version | Text Only | Print | Product List | Glossary Off
Versions: 1 2 3 4 5 6 7 8 9 10 11 12 13 14 15 16 17 18 19 20

000
FTUS42 KMHX 212300
TAFEWN
TAF
KEWN 212322Z 2200/2224 04010KT P6SM BKN050 OVC100
     FM220300 04010KT P6SM VCSH OVC020
     FM220800 04010KT P6SM -RA OVC008
     FM221100 04010KT 4SM -RA OVC004
     FM221900 35005KT 4SM -DZ OVC004=

USA.gov is the U.S. government's official web portal to all federal, state and local government web resources and services.